sensor_id;sensor_type;location;lat;lon;timestamp;noise_LAeq;noise_LA_min;noise_LA_max;noise_LA01;noise_LA95
74292;Laerm;62687;55.738;37.516;2023-04-07T00:00:42;65.25;53.21;72.56;;
74292;Laerm;62687;55.738;37.516;2023-04-07T00:03:26;66.03;50.20;73.21;;
74292;Laerm;62687;55.738;37.516;2023-04-07T00:06:10;66.10;56.17;72.47;;
74292;Laerm;62687;55.738;37.516;2023-04-07T00:08:54;66.68;57.08;80.38;;
74292;Laerm;62687;55.738;37.516;2023-04-07T00:11:38;65.37;55.01;74.41;;
74292;Laerm;62687;55.738;37.516;2023-04-07T00:14:22;66.06;53.87;72.96;;
74292;Laerm;62687;55.738;37.516;2023-04-07T00:17:06;65.89;52.53;75.08;;
74292;Laerm;62687;55.738;37.516;2023-04-07T00:19:50;66.49;52.67;80.52;;
74292;Laerm;62687;55.738;37.516;2023-04-07T00:22:34;64.85;54.37;72.19;;
74292;Laerm;62687;55.738;37.516;2023-04-07T00:25:18;66.71;53.00;83.91;;
74292;Laerm;62687;55.738;37.516;2023-04-07T00:28:02;64.67;54.73;70.40;;
74292;Laerm;62687;55.738;37.516;2023-04-07T00:30:47;65.17;54.05;74.98;;
74292;Laerm;62687;55.738;37.516;2023-04-07T00:33:31;65.94;53.49;75.93;;
74292;Laerm;62687;55.738;37.516;2023-04-07T00:36:15;65.48;54.94;72.11;;
74292;Laerm;62687;55.738;37.516;2023-04-07T00:38:59;66.51;51.63;73.60;;
74292;Laerm;62687;55.738;37.516;2023-04-07T00:41:44;65.99;55.03;72.02;;
74292;Laerm;62687;55.738;37.516;2023-04-07T00:44:28;65.16;52.67;73.17;;
74292;Laerm;62687;55.738;37.516;2023-04-07T00:47:14;66.53;55.06;75.21;;
74292;Laerm;62687;55.738;37.516;2023-04-07T00:49:58;64.58;54.08;72.86;;
74292;Laerm;62687;55.738;37.516;2023-04-07T00:52:43;65.27;53.97;72.53;;
74292;Laerm;62687;55.738;37.516;2023-04-07T00:55:28;66.06;55.58;73.59;;
74292;Laerm;62687;55.738;37.516;2023-04-07T00:58:12;65.59;56.03;72.48;;
74292;Laerm;62687;55.738;37.516;2023-04-07T01:01:14;64.98;53.85;73.04;;
74292;Laerm;62687;55.738;37.516;2023-04-07T01:04:12;64.94;55.52;74.17;;
74292;Laerm;62687;55.738;37.516;2023-04-07T01:07:15;65.06;54.53;73.46;;
74292;Laerm;62687;55.738;37.516;2023-04-07T01:10:03;66.66;52.04;75.58;;
74292;Laerm;62687;55.738;37.516;2023-04-07T01:13:01;67.08;55.05;80.42;;
74292;Laerm;62687;55.738;37.516;2023-04-07T01:15:51;69.20;56.33;80.49;;
74292;Laerm;62687;55.738;37.516;2023-04-07T01:18:37;65.90;56.92;85.19;;
74292;Laerm;62687;55.738;37.516;2023-04-07T01:21:25;65.79;55.92;73.74;;
74292;Laerm;62687;55.738;37.516;2023-04-07T01:27:34;65.36;53.81;72.66;;
74292;Laerm;62687;55.738;37.516;2023-04-07T01:30:21;66.51;48.76;78.86;;
74292;Laerm;62687;55.738;37.516;2023-04-07T01:33:07;67.46;52.44;91.23;;
74292;Laerm;62687;55.738;37.516;2023-04-07T01:35:53;67.05;57.67;78.53;;
74292;Laerm;62687;55.738;37.516;2023-04-07T01:38:40;65.44;54.83;72.39;;
74292;Laerm;62687;55.738;37.516;2023-04-07T01:41:26;64.95;53.81;73.21;;
74292;Laerm;62687;55.738;37.516;2023-04-07T01:44:12;66.45;57.21;74.11;;
74292;Laerm;62687;55.738;37.516;2023-04-07T01:46:57;65.95;54.78;87.59;;
74292;Laerm;62687;55.738;37.516;2023-04-07T01:49:43;65.41;54.05;83.22;;
74292;Laerm;62687;55.738;37.516;2023-04-07T01:52:29;66.15;56.90;76.60;;
74292;Laerm;62687;55.738;37.516;2023-04-07T01:55:13;67.98;59.30;80.16;;
74292;Laerm;62687;55.738;37.516;2023-04-07T01:58:03;66.46;55.87;73.79;;
74292;Laerm;62687;55.738;37.516;2023-04-07T02:00:47;70.81;58.72;89.38;;
74292;Laerm;62687;55.738;37.516;2023-04-07T02:03:39;67.15;58.35;79.02;;
74292;Laerm;62687;55.738;37.516;2023-04-07T02:06:33;68.32;57.93;85.61;;
74292;Laerm;62687;55.738;37.516;2023-04-07T02:09:20;67.46;58.44;74.58;;
74292;Laerm;62687;55.738;37.516;2023-04-07T02:12:07;66.16;59.51;79.79;;
74292;Laerm;62687;55.738;37.516;2023-04-07T02:14:53;68.09;61.21;75.05;;
74292;Laerm;62687;55.738;37.516;2023-04-07T02:17:41;68.25;59.29;74.82;;
74292;Laerm;62687;55.738;37.516;2023-04-07T02:20:27;68.52;59.07;82.38;;
74292;Laerm;62687;55.738;37.516;2023-04-07T02:23:11;69.01;60.82;74.53;;
74292;Laerm;62687;55.738;37.516;2023-04-07T02:25:56;67.58;56.43;77.52;;
74292;Laerm;62687;55.738;37.516;2023-04-07T02:28:41;68.80;59.14;76.78;;
74292;Laerm;62687;55.738;37.516;2023-04-07T02:31:25;67.97;60.22;75.56;;
74292;Laerm;62687;55.738;37.516;2023-04-07T02:34:09;68.71;61.48;74.21;;
74292;Laerm;62687;55.738;37.516;2023-04-07T02:36:53;66.80;59.99;73.72;;
74292;Laerm;62687;55.738;37.516;2023-04-07T02:39:38;68.34;59.23;74.27;;
74292;Laerm;62687;55.738;37.516;2023-04-07T02:42:22;69.68;60.85;76.06;;
74292;Laerm;62687;55.738;37.516;2023-04-07T02:45:07;70.06;61.34;77.19;;
74292;Laerm;62687;55.738;37.516;2023-04-07T02:47:52;69.61;61.22;78.43;;
74292;Laerm;62687;55.738;37.516;2023-04-07T02:50:36;70.20;62.79;83.13;;
74292;Laerm;62687;55.738;37.516;2023-04-07T02:53:20;69.89;62.24;76.40;;
74292;Laerm;62687;55.738;37.516;2023-04-07T02:56:04;69.85;64.04;75.75;;
74292;Laerm;62687;55.738;37.516;2023-04-07T02:58:48;69.99;61.69;75.02;;
74292;Laerm;62687;55.738;37.516;2023-04-07T03:01:33;69.79;61.93;77.33;;
74292;Laerm;62687;55.738;37.516;2023-04-07T03:04:20;70.32;62.65;78.07;;
74292;Laerm;62687;55.738;37.516;2023-04-07T03:07:04;69.98;62.10;79.61;;
74292;Laerm;62687;55.738;37.516;2023-04-07T03:09:48;70.37;63.55;82.01;;
74292;Laerm;62687;55.738;37.516;2023-04-07T03:12:32;70.98;63.50;80.00;;
74292;Laerm;62687;55.738;37.516;2023-04-07T03:15:16;71.17;63.37;76.74;;
74292;Laerm;62687;55.738;37.516;2023-04-07T03:18:01;71.02;64.55;75.98;;
74292;Laerm;62687;55.738;37.516;2023-04-07T03:20:47;70.93;64.26;77.89;;
74292;Laerm;62687;55.738;37.516;2023-04-07T03:23:31;72.31;66.92;76.72;;
74292;Laerm;62687;55.738;37.516;2023-04-07T03:26:15;71.87;64.88;83.04;;
74292;Laerm;62687;55.738;37.516;2023-04-07T03:28:59;72.09;66.09;81.58;;
74292;Laerm;62687;55.738;37.516;2023-04-07T03:31:44;71.64;66.66;76.64;;
74292;Laerm;62687;55.738;37.516;2023-04-07T03:34:28;72.25;67.34;79.45;;
74292;Laerm;62687;55.738;37.516;2023-04-07T03:37:12;72.72;66.98;77.12;;
74292;Laerm;62687;55.738;37.516;2023-04-07T03:39:56;72.57;65.93;79.44;;
74292;Laerm;62687;55.738;37.516;2023-04-07T03:42:40;72.48;66.32;77.30;;
74292;Laerm;62687;55.738;37.516;2023-04-07T03:45:24;72.64;65.45;76.95;;
74292;Laerm;62687;55.738;37.516;2023-04-07T03:48:09;72.81;67.82;78.37;;
74292;Laerm;62687;55.738;37.516;2023-04-07T03:50:54;72.54;67.31;77.06;;
74292;Laerm;62687;55.738;37.516;2023-04-07T03:53:39;73.39;66.97;79.18;;
74292;Laerm;62687;55.738;37.516;2023-04-07T03:56:23;72.85;67.09;77.60;;
74292;Laerm;62687;55.738;37.516;2023-04-07T03:59:07;72.90;68.57;76.92;;
74292;Laerm;62687;55.738;37.516;2023-04-07T04:01:52;72.96;67.82;77.66;;
74292;Laerm;62687;55.738;37.516;2023-04-07T04:04:36;72.75;67.26;77.29;;
74292;Laerm;62687;55.738;37.516;2023-04-07T04:07:20;73.24;68.01;76.86;;
74292;Laerm;62687;55.738;37.516;2023-04-07T04:10:05;73.09;68.45;79.36;;
74292;Laerm;62687;55.738;37.516;2023-04-07T04:12:49;73.62;68.56;82.79;;
74292;Laerm;62687;55.738;37.516;2023-04-07T04:15:33;72.99;67.86;82.11;;
74292;Laerm;62687;55.738;37.516;2023-04-07T04:18:17;73.31;68.63;83.90;;
74292;Laerm;62687;55.738;37.516;2023-04-07T04:21:02;73.74;69.00;77.52;;
74292;Laerm;62687;55.738;37.516;2023-04-07T04:23:46;73.14;68.03;79.73;;
74292;Laerm;62687;55.738;37.516;2023-04-07T04:26:30;73.84;69.17;82.03;;
74292;Laerm;62687;55.738;37.516;2023-04-07T04:29:14;73.85;69.68;82.55;;
74292;Laerm;62687;55.738;37.516;2023-04-07T04:31:58;73.95;68.68;80.49;;
74292;Laerm;62687;55.738;37.516;2023-04-07T04:34:43;73.24;68.70;84.08;;
74292;Laerm;62687;55.738;37.516;2023-04-07T04:37:27;73.73;68.93;83.31;;
74292;Laerm;62687;55.738;37.516;2023-04-07T04:40:11;73.91;68.67;78.60;;
74292;Laerm;62687;55.738;37.516;2023-04-07T04:42:55;74.22;68.00;87.95;;
74292;Laerm;62687;55.738;37.516;2023-04-07T04:45:40;73.66;69.10;77.70;;
74292;Laerm;62687;55.738;37.516;2023-04-07T04:48:24;73.26;68.24;77.15;;
74292;Laerm;62687;55.738;37.516;2023-04-07T04:51:08;74.12;69.62;93.42;;
74292;Laerm;62687;55.738;37.516;2023-04-07T04:53:52;73.77;69.27;80.36;;
74292;Laerm;62687;55.738;37.516;2023-04-07T04:56:36;73.22;65.87;82.10;;
74292;Laerm;62687;55.738;37.516;2023-04-07T04:59:20;72.99;68.21;77.82;;
74292;Laerm;62687;55.738;37.516;2023-04-07T05:02:05;75.87;66.21;94.45;;
74292;Laerm;62687;55.738;37.516;2023-04-07T05:04:49;73.05;67.64;80.77;;
74292;Laerm;62687;55.738;37.516;2023-04-07T05:07:34;73.00;69.03;76.63;;
74292;Laerm;62687;55.738;37.516;2023-04-07T05:10:18;73.35;67.71;79.73;;
74292;Laerm;62687;55.738;37.516;2023-04-07T05:13:03;73.63;69.66;77.33;;
74292;Laerm;62687;55.738;37.516;2023-04-07T05:15:47;73.12;65.82;79.98;;
74292;Laerm;62687;55.738;37.516;2023-04-07T05:18:31;73.44;68.95;86.79;;
74292;Laerm;62687;55.738;37.516;2023-04-07T05:21:15;73.54;69.65;78.19;;
74292;Laerm;62687;55.738;37.516;2023-04-07T05:24:00;73.82;69.33;81.77;;
74292;Laerm;62687;55.738;37.516;2023-04-07T05:26:44;73.47;69.50;77.71;;
74292;Laerm;62687;55.738;37.516;2023-04-07T05:29:28;73.40;68.42;77.24;;
74292;Laerm;62687;55.738;37.516;2023-04-07T05:32:12;72.78;68.35;90.63;;
74292;Laerm;62687;55.738;37.516;2023-04-07T05:34:56;73.38;68.97;81.05;;
74292;Laerm;62687;55.738;37.516;2023-04-07T05:37:41;73.86;67.77;82.66;;
74292;Laerm;62687;55.738;37.516;2023-04-07T05:40:25;73.12;67.62;78.53;;
74292;Laerm;62687;55.738;37.516;2023-04-07T05:43:09;73.10;68.13;78.01;;
74292;Laerm;62687;55.738;37.516;2023-04-07T05:45:53;73.54;68.58;79.64;;
74292;Laerm;62687;55.738;37.516;2023-04-07T05:48:37;73.15;69.06;77.36;;
74292;Laerm;62687;55.738;37.516;2023-04-07T05:51:21;73.74;69.22;78.02;;
74292;Laerm;62687;55.738;37.516;2023-04-07T05:54:05;73.99;68.62;84.83;;
74292;Laerm;62687;55.738;37.516;2023-04-07T05:56:49;73.27;69.14;77.88;;
74292;Laerm;62687;55.738;37.516;2023-04-07T05:59:34;73.16;67.77;83.75;;
74292;Laerm;62687;55.738;37.516;2023-04-07T06:02:19;73.99;68.72;85.47;;
74292;Laerm;62687;55.738;37.516;2023-04-07T06:05:04;73.63;68.64;86.40;;
74292;Laerm;62687;55.738;37.516;2023-04-07T06:07:48;72.78;68.05;81.74;;
74292;Laerm;62687;55.738;37.516;2023-04-07T06:10:32;72.94;68.88;82.40;;
74292;Laerm;62687;55.738;37.516;2023-04-07T06:13:16;72.64;68.63;78.82;;
74292;Laerm;62687;55.738;37.516;2023-04-07T06:16:01;73.22;68.59;80.41;;
74292;Laerm;62687;55.738;37.516;2023-04-07T06:18:45;73.39;69.32;77.75;;
74292;Laerm;62687;55.738;37.516;2023-04-07T06:21:29;72.36;68.68;76.79;;
74292;Laerm;62687;55.738;37.516;2023-04-07T06:24:14;73.45;68.26;86.99;;
74292;Laerm;62687;55.738;37.516;2023-04-07T06:26:59;74.26;69.35;87.87;;
74292;Laerm;62687;55.738;37.516;2023-04-07T06:29:44;72.98;68.58;76.85;;
74292;Laerm;62687;55.738;37.516;2023-04-07T06:32:28;72.78;67.81;77.69;;
74292;Laerm;62687;55.738;37.516;2023-04-07T06:35:12;72.72;68.75;79.25;;
74292;Laerm;62687;55.738;37.516;2023-04-07T06:37:56;72.60;68.67;76.58;;
74292;Laerm;62687;55.738;37.516;2023-04-07T06:40:40;73.30;68.00;87.04;;
74292;Laerm;62687;55.738;37.516;2023-04-07T06:43:25;72.60;68.03;79.37;;
74292;Laerm;62687;55.738;37.516;2023-04-07T06:46:09;72.77;68.26;77.96;;
74292;Laerm;62687;55.738;37.516;2023-04-07T06:48:53;73.59;69.11;87.26;;
74292;Laerm;62687;55.738;37.516;2023-04-07T06:51:37;73.46;68.78;83.89;;
74292;Laerm;62687;55.738;37.516;2023-04-07T06:54:21;72.58;67.71;77.69;;
74292;Laerm;62687;55.738;37.516;2023-04-07T06:57:06;73.79;66.98;85.95;;
74292;Laerm;62687;55.738;37.516;2023-04-07T06:59:54;72.81;68.99;78.55;;
74292;Laerm;62687;55.738;37.516;2023-04-07T07:02:39;72.76;68.71;78.31;;
74292;Laerm;62687;55.738;37.516;2023-04-07T07:05:23;74.56;67.76;95.97;;
74292;Laerm;62687;55.738;37.516;2023-04-07T07:08:07;72.13;65.82;80.25;;
74292;Laerm;62687;55.738;37.516;2023-04-07T07:10:52;73.35;68.06;87.39;;
74292;Laerm;62687;55.738;37.516;2023-04-07T07:13:36;71.86;67.32;76.30;;
74292;Laerm;62687;55.738;37.516;2023-04-07T07:16:20;72.78;67.15;91.97;;
74292;Laerm;62687;55.738;37.516;2023-04-07T07:19:00;72.35;67.92;79.14;;
74292;Laerm;62687;55.738;37.516;2023-04-07T07:21:44;72.74;67.41;82.88;;
74292;Laerm;62687;55.738;37.516;2023-04-07T07:24:29;72.20;67.71;84.50;;
74292;Laerm;62687;55.738;37.516;2023-04-07T07:27:16;72.42;67.03;78.21;;
74292;Laerm;62687;55.738;37.516;2023-04-07T07:30:01;72.71;68.67;76.62;;
74292;Laerm;62687;55.738;37.516;2023-04-07T07:32:45;71.81;67.26;78.19;;
74292;Laerm;62687;55.738;37.516;2023-04-07T07:35:29;72.39;67.71;77.34;;
74292;Laerm;62687;55.738;37.516;2023-04-07T07:38:15;72.28;67.79;76.62;;
74292;Laerm;62687;55.738;37.516;2023-04-07T07:40:59;72.52;67.97;83.16;;
74292;Laerm;62687;55.738;37.516;2023-04-07T07:43:43;72.34;68.10;78.26;;
74292;Laerm;62687;55.738;37.516;2023-04-07T07:46:27;73.08;68.61;78.05;;
74292;Laerm;62687;55.738;37.516;2023-04-07T07:49:11;72.59;67.57;78.56;;
74292;Laerm;62687;55.738;37.516;2023-04-07T07:51:55;72.95;68.48;77.30;;
74292;Laerm;62687;55.738;37.516;2023-04-07T07:54:40;72.68;66.44;80.93;;
74292;Laerm;62687;55.738;37.516;2023-04-07T07:57:24;72.87;68.57;76.70;;
74292;Laerm;62687;55.738;37.516;2023-04-07T08:00:09;72.89;67.00;80.09;;
74292;Laerm;62687;55.738;37.516;2023-04-07T08:02:53;72.61;68.27;83.58;;
74292;Laerm;62687;55.738;37.516;2023-04-07T08:05:38;72.90;68.28;78.11;;
74292;Laerm;62687;55.738;37.516;2023-04-07T08:08:22;72.45;67.81;76.63;;
74292;Laerm;62687;55.738;37.516;2023-04-07T08:11:07;73.05;68.24;76.46;;
74292;Laerm;62687;55.738;37.516;2023-04-07T08:13:51;73.09;67.25;85.28;;
74292;Laerm;62687;55.738;37.516;2023-04-07T08:16:36;73.07;69.63;80.09;;
74292;Laerm;62687;55.738;37.516;2023-04-07T08:19:21;73.32;69.10;78.85;;
74292;Laerm;62687;55.738;37.516;2023-04-07T08:22:05;73.40;69.95;80.04;;
74292;Laerm;62687;55.738;37.516;2023-04-07T08:24:49;72.86;68.98;77.33;;
74292;Laerm;62687;55.738;37.516;2023-04-07T08:27:33;73.05;69.27;76.46;;
74292;Laerm;62687;55.738;37.516;2023-04-07T08:30:17;73.27;68.37;78.90;;
74292;Laerm;62687;55.738;37.516;2023-04-07T08:33:05;72.84;68.42;76.63;;
74292;Laerm;62687;55.738;37.516;2023-04-07T08:35:49;72.95;69.00;78.88;;
74292;Laerm;62687;55.738;37.516;2023-04-07T08:38:33;72.64;67.63;81.40;;
74292;Laerm;62687;55.738;37.516;2023-04-07T08:41:28;72.85;67.56;77.16;;
74292;Laerm;62687;55.738;37.516;2023-04-07T08:44:14;73.23;68.89;85.12;;
74292;Laerm;62687;55.738;37.516;2023-04-07T08:47:00;72.82;68.49;78.50;;
74292;Laerm;62687;55.738;37.516;2023-04-07T08:49:49;72.67;68.15;76.90;;
74292;Laerm;62687;55.738;37.516;2023-04-07T08:55:25;72.73;67.92;77.54;;
74292;Laerm;62687;55.738;37.516;2023-04-07T08:58:09;72.88;68.71;78.28;;
74292;Laerm;62687;55.738;37.516;2023-04-07T09:00:57;72.82;68.42;77.67;;
74292;Laerm;62687;55.738;37.516;2023-04-07T09:03:42;72.60;68.96;77.70;;
74292;Laerm;62687;55.738;37.516;2023-04-07T09:06:29;72.77;68.32;78.53;;
74292;Laerm;62687;55.738;37.516;2023-04-07T09:09:15;72.97;68.93;80.38;;
74292;Laerm;62687;55.738;37.516;2023-04-07T09:11:59;73.45;68.91;77.53;;
74292;Laerm;62687;55.738;37.516;2023-04-07T09:14:43;72.88;68.42;77.58;;
74292;Laerm;62687;55.738;37.516;2023-04-07T09:17:28;73.17;68.84;83.38;;
74292;Laerm;62687;55.738;37.516;2023-04-07T09:20:13;73.08;67.74;80.82;;
74292;Laerm;62687;55.738;37.516;2023-04-07T09:22:57;73.16;68.73;83.39;;
74292;Laerm;62687;55.738;37.516;2023-04-07T09:25:36;72.96;68.61;80.45;;
74292;Laerm;62687;55.738;37.516;2023-04-07T09:28:20;73.05;69.00;77.63;;
74292;Laerm;62687;55.738;37.516;2023-04-07T09:31:05;72.53;67.60;80.94;;
74292;Laerm;62687;55.738;37.516;2023-04-07T09:33:50;72.57;68.53;80.10;;
74292;Laerm;62687;55.738;37.516;2023-04-07T09:36:40;72.39;67.49;77.87;;
74292;Laerm;62687;55.738;37.516;2023-04-07T09:39:26;72.40;67.05;76.85;;
74292;Laerm;62687;55.738;37.516;2023-04-07T09:42:10;72.49;66.79;80.49;;
74292;Laerm;62687;55.738;37.516;2023-04-07T09:44:55;72.43;68.06;77.34;;
74292;Laerm;62687;55.738;37.516;2023-04-07T09:47:39;72.85;67.03;78.76;;
74292;Laerm;62687;55.738;37.516;2023-04-07T09:50:33;73.23;68.10;77.19;;
74292;Laerm;62687;55.738;37.516;2023-04-07T09:53:25;72.40;67.82;77.66;;
74292;Laerm;62687;55.738;37.516;2023-04-07T09:56:25;73.12;67.08;78.34;;
74292;Laerm;62687;55.738;37.516;2023-04-07T09:59:12;73.18;68.16;79.68;;
74292;Laerm;62687;55.738;37.516;2023-04-07T10:01:58;72.93;68.40;82.53;;
74292;Laerm;62687;55.738;37.516;2023-04-07T10:04:43;72.84;67.59;79.04;;
74292;Laerm;62687;55.738;37.516;2023-04-07T10:07:27;73.25;68.51;83.03;;
74292;Laerm;62687;55.738;37.516;2023-04-07T10:10:11;72.88;69.19;77.21;;
74292;Laerm;62687;55.738;37.516;2023-04-07T10:12:56;71.92;67.46;78.51;;
74292;Laerm;62687;55.738;37.516;2023-04-07T10:15:41;72.12;67.66;76.58;;
74292;Laerm;62687;55.738;37.516;2023-04-07T10:18:29;72.46;67.63;81.15;;
74292;Laerm;62687;55.738;37.516;2023-04-07T10:21:15;72.67;68.06;76.67;;
74292;Laerm;62687;55.738;37.516;2023-04-07T10:27:18;72.58;68.48;81.12;;
74292;Laerm;62687;55.738;37.516;2023-04-07T10:30:04;73.19;67.11;77.78;;
74292;Laerm;62687;55.738;37.516;2023-04-07T10:32:52;72.79;68.64;76.81;;
74292;Laerm;62687;55.738;37.516;2023-04-07T10:36:04;72.87;68.48;80.36;;
74292;Laerm;62687;55.738;37.516;2023-04-07T10:41:52;72.46;68.78;76.60;;
74292;Laerm;62687;55.738;37.516;2023-04-07T10:47:23;70.58;54.12;79.76;;
74292;Laerm;62687;55.738;37.516;2023-04-07T10:50:21;63.36;52.35;75.55;;
74292;Laerm;62687;55.738;37.516;2023-04-07T10:53:11;71.43;54.41;82.36;;
74292;Laerm;62687;55.738;37.516;2023-04-07T10:55:55;71.80;66.33;88.59;;
74292;Laerm;62687;55.738;37.516;2023-04-07T10:58:39;70.12;66.89;75.93;;
74292;Laerm;62687;55.738;37.516;2023-04-07T11:01:23;70.52;66.32;77.06;;
74292;Laerm;62687;55.738;37.516;2023-04-07T11:04:08;71.76;67.25;82.30;;
74292;Laerm;62687;55.738;37.516;2023-04-07T11:06:52;71.37;67.95;78.10;;
74292;Laerm;62687;55.738;37.516;2023-04-07T11:09:36;72.53;68.44;77.75;;
74292;Laerm;62687;55.738;37.516;2023-04-07T11:12:22;72.63;68.06;77.21;;
74292;Laerm;62687;55.738;37.516;2023-04-07T11:15:16;73.20;68.15;79.31;;
74292;Laerm;62687;55.738;37.516;2023-04-07T11:18:20;73.43;67.90;88.55;;
74292;Laerm;62687;55.738;37.516;2023-04-07T11:21:06;73.34;68.81;80.70;;
74292;Laerm;62687;55.738;37.516;2023-04-07T11:23:50;73.64;69.03;80.88;;
74292;Laerm;62687;55.738;37.516;2023-04-07T11:26:39;73.06;67.91;86.87;;
74292;Laerm;62687;55.738;37.516;2023-04-07T11:29:33;72.62;68.30;81.22;;
74292;Laerm;62687;55.738;37.516;2023-04-07T11:32:12;72.39;68.41;80.33;;
74292;Laerm;62687;55.738;37.516;2023-04-07T11:34:57;71.81;67.09;77.17;;
74292;Laerm;62687;55.738;37.516;2023-04-07T11:37:41;72.32;66.99;81.07;;
74292;Laerm;62687;55.738;37.516;2023-04-07T11:40:33;72.01;66.47;80.91;;
74292;Laerm;62687;55.738;37.516;2023-04-07T11:43:22;70.77;65.80;75.62;;
74292;Laerm;62687;55.738;37.516;2023-04-07T11:46:10;71.36;66.38;77.51;;
74292;Laerm;62687;55.738;37.516;2023-04-07T11:49:07;71.25;67.31;75.72;;
74292;Laerm;62687;55.738;37.516;2023-04-07T11:52:00;71.61;66.92;84.19;;
74292;Laerm;62687;55.738;37.516;2023-04-07T11:54:45;71.29;67.15;75.43;;
74292;Laerm;62687;55.738;37.516;2023-04-07T11:57:30;71.57;65.90;87.07;;
74292;Laerm;62687;55.738;37.516;2023-04-07T12:00:15;71.01;66.51;76.15;;
74292;Laerm;62687;55.738;37.516;2023-04-07T12:03:08;71.80;66.16;82.00;;
74292;Laerm;62687;55.738;37.516;2023-04-07T12:05:54;71.78;67.44;83.40;;
74292;Laerm;62687;55.738;37.516;2023-04-07T12:08:40;71.79;66.77;78.09;;
74292;Laerm;62687;55.738;37.516;2023-04-07T12:11:25;71.92;67.93;77.91;;
74292;Laerm;62687;55.738;37.516;2023-04-07T12:14:09;73.37;66.12;87.90;;
74292;Laerm;62687;55.738;37.516;2023-04-07T12:16:54;71.78;66.85;79.15;;
74292;Laerm;62687;55.738;37.516;2023-04-07T12:19:39;71.98;67.67;78.05;;
74292;Laerm;62687;55.738;37.516;2023-04-07T12:22:24;70.63;66.97;77.87;;
74292;Laerm;62687;55.738;37.516;2023-04-07T12:25:08;71.16;65.40;78.92;;
74292;Laerm;62687;55.738;37.516;2023-04-07T12:27:52;69.57;62.71;83.93;;
74292;Laerm;62687;55.738;37.516;2023-04-07T12:30:37;69.73;64.83;79.10;;
74292;Laerm;62687;55.738;37.516;2023-04-07T12:33:21;69.81;65.10;75.14;;
74292;Laerm;62687;55.738;37.516;2023-04-07T12:36:05;68.93;64.20;85.55;;
74292;Laerm;62687;55.738;37.516;2023-04-07T12:38:50;71.65;64.35;80.56;;
74292;Laerm;62687;55.738;37.516;2023-04-07T12:41:34;71.10;62.23;88.76;;
74292;Laerm;62687;55.738;37.516;2023-04-07T12:44:19;69.52;65.67;78.17;;
74292;Laerm;62687;55.738;37.516;2023-04-07T12:47:03;70.25;65.83;84.61;;
74292;Laerm;62687;55.738;37.516;2023-04-07T12:49:48;68.62;64.29;74.53;;
74292;Laerm;62687;55.738;37.516;2023-04-07T12:52:32;69.77;64.31;83.60;;
74292;Laerm;62687;55.738;37.516;2023-04-07T12:55:16;70.00;65.38;83.99;;
74292;Laerm;62687;55.738;37.516;2023-04-07T12:58:01;70.16;66.36;82.79;;
74292;Laerm;62687;55.738;37.516;2023-04-07T13:00:45;69.60;65.28;80.80;;
74292;Laerm;62687;55.738;37.516;2023-04-07T13:03:32;70.00;65.12;79.42;;
74292;Laerm;62687;55.738;37.516;2023-04-07T13:06:16;68.89;64.32;82.38;;
74292;Laerm;62687;55.738;37.516;2023-04-07T13:09:00;70.61;65.77;82.93;;
74292;Laerm;62687;55.738;37.516;2023-04-07T13:11:44;70.24;66.06;75.05;;
74292;Laerm;62687;55.738;37.516;2023-04-07T13:14:28;69.64;65.00;75.31;;
74292;Laerm;62687;55.738;37.516;2023-04-07T13:17:13;69.23;65.57;79.15;;
74292;Laerm;62687;55.738;37.516;2023-04-07T13:19:57;70.31;66.10;74.94;;
74292;Laerm;62687;55.738;37.516;2023-04-07T13:22:41;69.44;66.23;74.54;;
74292;Laerm;62687;55.738;37.516;2023-04-07T13:25:26;70.96;65.78;85.36;;
74292;Laerm;62687;55.738;37.516;2023-04-07T13:28:10;69.47;64.87;83.21;;
74292;Laerm;62687;55.738;37.516;2023-04-07T13:30:54;69.65;65.35;74.95;;
74292;Laerm;62687;55.738;37.516;2023-04-07T13:33:38;69.54;64.42;84.55;;
74292;Laerm;62687;55.738;37.516;2023-04-07T13:36:24;70.04;65.44;74.28;;
74292;Laerm;62687;55.738;37.516;2023-04-07T13:39:10;69.70;64.14;73.65;;
74292;Laerm;62687;55.738;37.516;2023-04-07T13:41:55;69.97;65.53;78.92;;
74292;Laerm;62687;55.738;37.516;2023-04-07T13:44:39;68.69;64.16;80.38;;
74292;Laerm;62687;55.738;37.516;2023-04-07T13:47:23;68.25;63.67;76.55;;
74292;Laerm;62687;55.738;37.516;2023-04-07T13:50:08;69.01;64.28;83.40;;
74292;Laerm;62687;55.738;37.516;2023-04-07T13:52:53;70.09;65.26;83.87;;
74292;Laerm;62687;55.738;37.516;2023-04-07T13:55:37;69.36;63.82;80.03;;
74292;Laerm;62687;55.738;37.516;2023-04-07T13:58:22;69.03;63.39;75.59;;
74292;Laerm;62687;55.738;37.516;2023-04-07T14:01:06;68.96;61.11;76.20;;
74292;Laerm;62687;55.738;37.516;2023-04-07T14:03:51;68.41;63.86;72.79;;
74292;Laerm;62687;55.738;37.516;2023-04-07T14:06:36;69.85;66.23;73.84;;
74292;Laerm;62687;55.738;37.516;2023-04-07T14:09:20;69.88;65.95;76.49;;
74292;Laerm;62687;55.738;37.516;2023-04-07T14:12:05;70.06;63.25;77.79;;
74292;Laerm;62687;55.738;37.516;2023-04-07T14:14:49;69.54;61.65;84.25;;
74292;Laerm;62687;55.738;37.516;2023-04-07T14:17:35;70.86;65.35;82.67;;
74292;Laerm;62687;55.738;37.516;2023-04-07T14:20:20;70.39;65.84;77.13;;
74292;Laerm;62687;55.738;37.516;2023-04-07T14:23:04;70.52;66.67;79.58;;
74292;Laerm;62687;55.738;37.516;2023-04-07T14:25:48;70.63;65.21;79.42;;
74292;Laerm;62687;55.738;37.516;2023-04-07T14:28:32;69.88;65.55;76.06;;
74292;Laerm;62687;55.738;37.516;2023-04-07T14:31:16;70.62;65.93;87.29;;
74292;Laerm;62687;55.738;37.516;2023-04-07T14:34:00;70.54;66.04;82.35;;
74292;Laerm;62687;55.738;37.516;2023-04-07T14:36:54;69.31;65.54;83.46;;
74292;Laerm;62687;55.738;37.516;2023-04-07T14:39:38;69.78;65.53;74.44;;
74292;Laerm;62687;55.738;37.516;2023-04-07T14:42:22;68.93;63.15;83.16;;
74292;Laerm;62687;55.738;37.516;2023-04-07T14:45:07;71.28;64.99;84.17;;
74292;Laerm;62687;55.738;37.516;2023-04-07T14:47:51;68.58;64.38;78.94;;
74292;Laerm;62687;55.738;37.516;2023-04-07T14:50:36;70.32;63.88;86.89;;
74292;Laerm;62687;55.738;37.516;2023-04-07T14:53:20;69.06;62.28;83.08;;
74292;Laerm;62687;55.738;37.516;2023-04-07T14:56:05;68.41;62.91;82.47;;
74292;Laerm;62687;55.738;37.516;2023-04-07T14:58:49;69.37;62.98;82.53;;
74292;Laerm;62687;55.738;37.516;2023-04-07T15:01:34;71.11;63.54;85.83;;
74292;Laerm;62687;55.738;37.516;2023-04-07T15:04:18;70.62;64.94;83.34;;
74292;Laerm;62687;55.738;37.516;2023-04-07T15:07:02;69.68;64.47;80.77;;
74292;Laerm;62687;55.738;37.516;2023-04-07T15:09:46;69.87;62.56;87.86;;
74292;Laerm;62687;55.738;37.516;2023-04-07T15:12:30;68.75;63.99;80.62;;
74292;Laerm;62687;55.738;37.516;2023-04-07T15:15:16;69.91;62.82;83.53;;
74292;Laerm;62687;55.738;37.516;2023-04-07T15:18:00;68.20;63.10;73.90;;
74292;Laerm;62687;55.738;37.516;2023-04-07T15:20:45;68.60;62.10;78.63;;
74292;Laerm;62687;55.738;37.516;2023-04-07T15:23:29;69.34;63.29;81.20;;
74292;Laerm;62687;55.738;37.516;2023-04-07T15:26:13;69.20;62.95;83.05;;